createdAt,value
2019-02-06T00:01:08.494Z,30.90
2019-02-06T00:03:41.095Z,31.02
2019-02-06T00:06:13.675Z,31.77
2019-02-06T00:08:46.436Z,31.80
2019-02-06T00:11:19.355Z,33.02
2019-02-06T00:13:53.027Z,31.48
2019-02-06T00:16:26.040Z,31.90
2019-02-06T00:18:58.377Z,31.95
2019-02-06T00:21:30.976Z,32.60
2019-02-06T00:24:04.115Z,33.88
2019-02-06T00:26:36.578Z,31.93
2019-02-06T00:29:08.935Z,31.25
2019-02-06T00:31:41.735Z,32.67
2019-02-06T00:34:14.076Z,34.10
2019-02-06T00:36:46.316Z,32.83
2019-02-06T00:39:19.155Z,33.85
2019-02-06T00:41:52.034Z,34.18
2019-02-06T00:44:24.883Z,33.90
2019-02-06T00:46:57.716Z,33.63
2019-02-06T00:49:30.695Z,33.92
2019-02-06T00:52:03.195Z,33.88
2019-02-06T00:54:36.256Z,31.93
2019-02-06T00:57:08.818Z,32.17
2019-02-06T00:59:41.275Z,33.10
2019-02-06T01:02:14.271Z,32.48
2019-02-06T01:04:47.037Z,31.00
2019-02-06T01:07:19.418Z,30.48
2019-02-06T01:09:51.695Z,30.62
2019-02-06T01:12:23.230Z,31.93
2019-02-06T01:14:56.735Z,32.05
2019-02-06T01:17:29.575Z,32.80
2019-02-06T01:20:02.263Z,32.20
2019-02-06T01:22:35.635Z,32.53
2019-02-06T01:25:09.475Z,32.50
2019-02-06T01:27:41.595Z,32.58
2019-02-06T01:30:16.978Z,32.98
2019-02-06T01:32:49.257Z,31.65
2019-02-06T01:35:21.895Z,30.25
2019-02-06T01:37:54.397Z,30.57
2019-02-06T01:40:26.737Z,33.67
2019-02-06T01:42:59.897Z,33.08
2019-02-06T01:45:32.776Z,29.65
2019-02-06T01:48:05.994Z,28.90
2019-02-06T01:50:38.576Z,29.48
2019-02-06T01:53:10.694Z,28.25
2019-02-06T01:55:43.480Z,26.40
2019-02-06T01:58:15.976Z,25.72
2019-02-06T02:00:48.359Z,25.40
2019-02-06T02:03:21.876Z,24.85
2019-02-06T02:06:02.354Z,25.08
2019-02-06T02:08:29.596Z,25.68
2019-02-06T02:11:02.198Z,24.98
2019-02-06T02:13:35.656Z,27.07
2019-02-06T02:16:08.938Z,24.52
2019-02-06T02:18:41.375Z,24.70
2019-02-06T02:21:14.117Z,24.87
2019-02-06T02:23:46.416Z,26.37
2019-02-06T02:26:18.636Z,27.73
2019-02-06T02:28:51.176Z,27.48
2019-02-06T02:31:23.936Z,26.20
2019-02-06T02:33:56.860Z,25.65
2019-02-06T02:36:29.179Z,28.35
2019-02-06T02:39:02.138Z,27.17
2019-02-06T02:41:35.515Z,29.37
2019-02-06T02:44:08.517Z,31.80
2019-02-06T02:46:42.118Z,31.60
2019-02-06T02:49:15.774Z,29.30
2019-02-06T02:51:47.817Z,28.25
2019-02-06T02:54:20.616Z,27.35
2019-02-06T02:56:53.635Z,28.98
2019-02-06T02:59:26.336Z,28.73
2019-02-06T03:02:17.355Z,31.00
2019-02-06T03:04:57.100Z,27.22
2019-02-06T03:07:29.261Z,27.20
2019-02-06T03:10:01.797Z,28.87
2019-02-06T03:12:35.495Z,27.52
2019-02-06T03:15:09.235Z,27.50
2019-02-06T03:17:42.275Z,27.62
2019-02-06T03:20:14.536Z,28.05
2019-02-06T03:22:46.696Z,26.00
2019-02-06T03:25:19.499Z,26.95
2019-02-06T03:27:51.398Z,26.52
2019-02-06T03:30:24.996Z,28.15
2019-02-06T03:32:57.807Z,27.87
2019-02-06T03:35:31.115Z,26.30
2019-02-06T03:38:03.176Z,28.42
2019-02-06T03:40:37.095Z,27.58
2019-02-06T03:43:10.095Z,26.75
2019-02-06T03:45:42.176Z,29.07
2019-02-06T03:48:14.395Z,27.55
2019-02-06T03:50:47.597Z,27.35
2019-02-06T03:53:20.455Z,28.50
2019-02-06T03:55:53.256Z,27.55
2019-02-06T03:58:25.339Z,29.50
2019-02-06T04:00:58.176Z,24.75
2019-02-06T04:03:30.735Z,26.55
2019-02-06T04:06:03.555Z,23.67
2019-02-06T04:08:36.476Z,24.10
2019-02-06T04:11:08.994Z,23.35
2019-02-06T04:13:42.296Z,26.00
2019-02-06T04:16:14.675Z,24.87
2019-02-06T04:18:47.835Z,24.72
2019-02-06T04:21:20.717Z,23.50
2019-02-06T04:23:53.397Z,23.60
2019-02-06T04:26:26.936Z,23.90
2019-02-06T04:28:59.597Z,23.67
2019-02-06T04:31:32.135Z,24.57
2019-02-06T04:34:04.574Z,22.30
2019-02-06T04:36:37.778Z,21.20
2019-02-06T04:39:12.418Z,29.23
2019-02-06T04:41:45.895Z,22.00
2019-02-06T04:44:18.841Z,22.40
2019-02-06T04:46:51.315Z,23.60
2019-02-06T04:49:24.096Z,19.50
2019-02-06T04:51:57.375Z,19.35
2019-02-06T04:54:29.535Z,19.60
2019-02-06T04:57:02.517Z,21.23
2019-02-06T04:59:35.176Z,21.62
2019-02-06T05:02:07.696Z,19.80
2019-02-06T05:04:39.855Z,20.12
2019-02-06T05:07:19.516Z,18.07
2019-02-06T05:09:47.318Z,19.67
2019-02-06T05:12:19.716Z,21.52
2019-02-06T05:14:53.216Z,20.90
2019-02-06T05:17:26.775Z,21.62
2019-02-06T05:19:59.557Z,21.90
2019-02-06T05:22:31.776Z,24.20
2019-02-06T05:25:04.695Z,22.32
2019-02-06T05:27:38.377Z,24.90
2019-02-06T05:30:11.504Z,24.32
2019-02-06T05:32:43.984Z,24.87
2019-02-06T05:35:16.709Z,25.60
2019-02-06T05:37:49.734Z,25.85
2019-02-06T05:40:22.496Z,25.97
2019-02-06T05:42:54.855Z,27.25
2019-02-06T05:45:27.656Z,27.27
2019-02-06T05:47:59.987Z,26.80
2019-02-06T05:50:32.302Z,27.52
2019-02-06T05:53:05.899Z,27.35
2019-02-06T05:55:38.336Z,27.85
2019-02-06T05:58:11.336Z,28.92
2019-02-06T06:00:46.696Z,30.30
2019-02-06T06:03:19.715Z,26.73
2019-02-06T06:05:53.095Z,23.67
2019-02-06T06:08:25.496Z,24.87
2019-02-06T06:10:56.675Z,22.32
2019-02-06T06:13:29.437Z,21.50
2019-02-06T06:16:01.897Z,21.00
2019-02-06T06:18:35.755Z,20.48
2019-02-06T06:21:08.335Z,20.85
2019-02-06T06:23:41.155Z,19.65
2019-02-06T06:26:13.737Z,20.55
2019-02-06T06:28:47.135Z,22.62
2019-02-06T06:31:20.515Z,21.40
2019-02-06T06:33:53.526Z,20.85
2019-02-06T06:36:25.660Z,20.77
2019-02-06T06:38:59.195Z,18.87
2019-02-06T06:41:31.615Z,22.65
2019-02-06T06:44:03.876Z,19.73
2019-02-06T06:46:36.896Z,19.85
2019-02-06T06:49:09.556Z,21.00
2019-02-06T06:51:42.875Z,21.05
2019-02-06T06:54:15.658Z,21.20
2019-02-06T06:56:48.775Z,20.92
2019-02-06T06:59:21.380Z,21.25
2019-02-06T07:01:53.948Z,21.45
2019-02-06T07:04:26.736Z,21.62
2019-02-06T07:06:59.976Z,22.20
2019-02-06T07:09:32.375Z,23.35
2019-02-06T07:12:04.776Z,20.37
2019-02-06T07:14:37.316Z,20.35
2019-02-06T07:17:10.415Z,19.67
2019-02-06T07:19:43.215Z,21.75
2019-02-06T07:22:16.475Z,34.23
2019-02-06T07:24:49.956Z,20.27
2019-02-06T07:27:23.016Z,20.40
2019-02-06T07:29:56.104Z,19.80
2019-02-06T07:32:29.095Z,19.50
2019-02-06T07:35:02.375Z,21.42
2019-02-06T07:37:35.569Z,19.92
2019-02-06T07:40:09.515Z,22.02
2019-02-06T07:42:43.055Z,21.90
2019-02-06T07:45:16.694Z,21.25
2019-02-06T07:47:48.836Z,20.90
2019-02-06T07:50:23.542Z,20.57
2019-02-06T07:52:56.195Z,20.68
2019-02-06T07:55:28.856Z,17.42
2019-02-06T07:58:02.858Z,17.45
2019-02-06T08:00:36.636Z,17.85
2019-02-06T08:03:09.995Z,16.75
2019-02-06T08:05:43.740Z,17.52
2019-02-06T08:08:16.280Z,19.07
2019-02-06T08:10:48.978Z,19.02
2019-02-06T08:13:22.059Z,19.40
2019-02-06T08:15:55.318Z,19.65
2019-02-06T08:18:27.199Z,19.57
2019-02-06T08:20:59.798Z,20.95
2019-02-06T08:23:32.778Z,18.92
2019-02-06T08:26:05.918Z,22.48
2019-02-06T08:28:38.378Z,19.45
2019-02-06T08:31:11.018Z,22.95
2019-02-06T08:33:43.957Z,19.85
2019-02-06T08:36:16.718Z,19.57
2019-02-06T08:38:48.847Z,18.50
2019-02-06T08:41:22.226Z,20.85
2019-02-06T08:43:54.964Z,18.05
2019-02-06T08:46:26.965Z,23.18
2019-02-06T08:49:01.827Z,19.70
2019-02-06T08:51:34.065Z,21.50
2019-02-06T08:54:06.685Z,22.45
2019-02-06T08:56:40.125Z,21.87
2019-02-06T08:59:13.425Z,21.00
2019-02-06T09:01:45.648Z,21.65
2019-02-06T09:04:18.864Z,21.48
2019-02-06T09:06:51.826Z,21.57
2019-02-06T09:09:24.827Z,20.23
2019-02-06T09:11:57.924Z,19.75
2019-02-06T09:14:29.885Z,20.90
2019-02-06T09:17:02.404Z,19.95
2019-02-06T09:19:35.124Z,20.57
2019-02-06T09:22:07.625Z,19.80
2019-02-06T09:24:39.804Z,19.98
2019-02-06T09:27:12.846Z,21.07
2019-02-06T09:29:45.585Z,25.30
2019-02-06T09:32:18.548Z,21.20
2019-02-06T09:34:51.085Z,21.35
2019-02-06T09:37:23.506Z,20.62
2019-02-06T09:39:56.184Z,19.50
2019-02-06T09:42:29.366Z,21.70
2019-02-06T09:45:02.726Z,20.23
2019-02-06T09:47:36.265Z,20.17
2019-02-06T09:50:11.346Z,19.85
2019-02-06T09:52:45.048Z,20.12
2019-02-06T09:55:17.643Z,28.35
2019-02-06T09:57:50.064Z,19.23
2019-02-06T10:00:27.304Z,17.73
2019-02-06T10:03:01.071Z,20.68
2019-02-06T10:05:32.884Z,21.65
2019-02-06T10:08:05.124Z,18.92
2019-02-06T10:10:38.365Z,19.25
2019-02-06T10:13:11.088Z,19.42
2019-02-06T10:15:44.305Z,18.92
2019-02-06T10:18:16.605Z,19.87
2019-02-06T10:20:52.846Z,20.77
2019-02-06T10:23:25.144Z,19.70
2019-02-06T10:25:58.064Z,19.37
2019-02-06T10:28:31.124Z,18.73
2019-02-06T10:31:04.447Z,19.77
2019-02-06T10:33:36.464Z,20.30
2019-02-06T10:36:09.485Z,19.40
2019-02-06T10:38:42.426Z,20.00
2019-02-06T10:41:15.545Z,19.45
2019-02-06T10:43:48.604Z,109.48
2019-02-06T10:46:21.107Z,19.00
2019-02-06T10:48:54.070Z,20.97
2019-02-06T10:51:28.203Z,20.00
2019-02-06T10:54:01.248Z,19.23
2019-02-06T10:56:33.645Z,19.90
2019-02-06T10:59:06.484Z,19.52
2019-02-06T11:01:38.967Z,20.35
2019-02-06T11:04:11.716Z,21.02
2019-02-06T11:06:44.176Z,18.15
2019-02-06T11:09:17.134Z,20.00
2019-02-06T11:11:50.395Z,18.48
2019-02-06T11:14:23.031Z,19.55
2019-02-06T11:16:55.996Z,19.07
2019-02-06T11:19:28.937Z,18.40
2019-02-06T11:22:01.356Z,19.07
2019-02-06T11:24:32.394Z,19.73
2019-02-06T11:27:05.735Z,18.92
2019-02-06T11:29:37.818Z,24.07
2019-02-06T11:32:09.904Z,20.08
2019-02-06T11:34:43.002Z,20.82
2019-02-06T11:37:15.187Z,18.87
2019-02-06T11:39:57.633Z,22.32
2019-02-06T11:42:22.276Z,18.67
2019-02-06T11:44:54.023Z,17.67
2019-02-06T11:47:26.882Z,19.12
2019-02-06T11:50:01.693Z,19.67
2019-02-06T11:52:34.083Z,17.02
2019-02-06T11:55:05.243Z,18.52
2019-02-06T11:57:37.984Z,19.32
2019-02-06T12:00:14.383Z,19.30
2019-02-06T12:02:47.611Z,18.30
2019-02-06T12:05:20.163Z,39.13
2019-02-06T12:07:53.401Z,19.00
2019-02-06T12:10:27.163Z,20.77
2019-02-06T12:13:00.791Z,22.22
2019-02-06T12:15:33.662Z,19.10
2019-02-06T12:18:06.095Z,19.73
2019-02-06T12:20:38.313Z,20.35
2019-02-06T12:23:10.432Z,20.48
2019-02-06T12:25:42.471Z,19.42
2019-02-06T12:28:14.832Z,20.55
2019-02-06T12:30:48.060Z,19.87
2019-02-06T12:33:20.105Z,19.90
2019-02-06T12:35:52.484Z,21.02
2019-02-06T12:38:25.083Z,20.27
2019-02-06T12:40:57.651Z,21.73
2019-02-06T12:43:30.331Z,21.10
2019-02-06T12:46:03.210Z,21.45
2019-02-06T12:48:35.653Z,20.10
2019-02-06T12:51:08.020Z,22.75
2019-02-06T12:53:40.941Z,21.93
2019-02-06T12:56:14.135Z,22.15
2019-02-06T12:58:45.993Z,20.48
2019-02-06T13:01:18.689Z,21.75
2019-02-06T13:03:51.989Z,22.25
2019-02-06T13:06:25.828Z,22.90
2019-02-06T13:09:00.488Z,23.90
2019-02-06T13:11:33.129Z,22.75
2019-02-06T13:14:06.530Z,24.43
2019-02-06T13:16:38.521Z,22.62
2019-02-06T13:19:11.821Z,23.30
2019-02-06T13:21:44.286Z,23.50
2019-02-06T13:24:17.090Z,25.15
2019-02-06T13:26:49.525Z,23.98
2019-02-06T13:29:21.687Z,24.02
2019-02-06T13:31:53.745Z,25.62
2019-02-06T13:34:25.764Z,25.00
2019-02-06T13:36:58.442Z,25.32
2019-02-06T13:39:30.708Z,23.52
2019-02-06T13:42:05.587Z,24.25
2019-02-06T13:44:37.327Z,23.73
2019-02-06T13:47:10.368Z,23.02
2019-02-06T13:49:42.608Z,24.63
2019-02-06T13:52:15.217Z,25.92
2019-02-06T13:54:48.457Z,24.70
2019-02-06T13:57:20.864Z,26.55
2019-02-06T13:59:53.204Z,24.07
2019-02-06T14:02:26.224Z,41.60
2019-02-06T14:04:59.818Z,28.50
2019-02-06T14:07:32.737Z,25.80
2019-02-06T14:10:05.584Z,25.10
2019-02-06T14:12:38.385Z,25.85
2019-02-06T14:15:12.523Z,23.65
2019-02-06T14:17:45.463Z,27.55
2019-02-06T14:20:20.345Z,25.45
2019-02-06T14:22:58.139Z,25.97
2019-02-06T14:25:45.408Z,28.25
2019-02-06T14:28:44.849Z,25.72
2019-02-06T14:31:49.369Z,27.50
2019-02-06T14:34:41.631Z,27.60
2019-02-06T14:37:54.663Z,27.30
2019-02-06T14:40:55.462Z,24.90
2019-02-06T14:43:49.103Z,26.62
2019-02-06T14:47:06.619Z,25.77
2019-02-06T14:50:05.844Z,25.92
2019-02-06T14:53:05.784Z,26.70
2019-02-06T14:56:10.365Z,25.85
2019-02-06T14:59:13.426Z,26.93
2019-02-06T15:02:29.490Z,27.13
2019-02-06T15:05:25.229Z,26.65
2019-02-06T15:08:33.049Z,26.85
2019-02-06T15:11:45.268Z,25.52
2019-02-06T15:14:47.258Z,26.40
2019-02-06T15:18:05.968Z,28.80
2019-02-06T15:21:15.430Z,27.65
2019-02-06T15:24:11.548Z,26.68
2019-02-06T15:27:21.528Z,25.08
2019-02-06T15:30:23.788Z,26.48
2019-02-06T15:33:37.572Z,28.05
2019-02-06T15:36:49.651Z,28.65
2019-02-06T15:40:05.888Z,27.00
2019-02-06T15:43:33.789Z,28.52
2019-02-06T15:47:04.469Z,27.02
2019-02-06T15:50:10.267Z,27.50
2019-02-06T15:53:24.417Z,28.30
2019-02-06T15:56:19.488Z,26.65
2019-02-06T15:59:26.931Z,29.07
2019-02-06T16:02:45.009Z,26.23
2019-02-06T16:05:54.079Z,28.95
2019-02-06T16:09:12.627Z,27.45
2019-02-06T16:12:23.823Z,27.82
2019-02-06T16:15:39.678Z,28.92
2019-02-06T16:18:39.636Z,31.75
2019-02-06T16:21:39.680Z,27.77
2019-02-06T16:24:45.976Z,30.57
2019-02-06T16:28:01.821Z,42.30
2019-02-06T16:31:05.382Z,29.37
2019-02-06T16:34:27.120Z,30.45
2019-02-06T16:37:49.166Z,32.15
2019-02-06T16:40:45.003Z,30.17
2019-02-06T16:43:51.349Z,30.68
2019-02-06T16:46:48.994Z,34.00
2019-02-06T16:49:42.402Z,31.80
2019-02-06T16:53:00.747Z,30.88
2019-02-06T16:56:02.989Z,29.37
2019-02-06T16:59:15.028Z,30.30
2019-02-06T17:02:25.250Z,32.05
2019-02-06T17:05:40.145Z,34.30
2019-02-06T17:08:45.586Z,33.35
2019-02-06T17:12:04.647Z,34.70
2019-02-06T17:15:19.866Z,31.75
2019-02-06T17:18:20.667Z,32.67
2019-02-06T17:21:39.267Z,33.23
2019-02-06T17:24:47.426Z,35.70
2019-02-06T17:27:36.388Z,35.00
2019-02-06T17:30:39.967Z,31.87
2019-02-06T17:33:41.165Z,38.17
2019-02-06T17:36:57.046Z,32.40
2019-02-06T17:40:05.866Z,34.20
2019-02-06T17:42:55.314Z,34.70
2019-02-06T17:45:55.966Z,39.53
2019-02-06T17:48:51.046Z,32.63
2019-02-06T17:51:51.511Z,35.25
2019-02-06T17:55:26.027Z,34.85
2019-02-06T17:58:01.045Z,37.25
2019-02-06T18:00:57.070Z,36.17
2019-02-06T18:03:31.871Z,37.40
2019-02-06T18:06:04.263Z,37.50
2019-02-06T18:08:38.021Z,38.58
2019-02-06T18:11:10.963Z,35.88
2019-02-06T18:13:43.362Z,35.92
2019-02-06T18:16:21.359Z,36.30
2019-02-06T18:18:51.143Z,36.40
2019-02-06T18:21:24.149Z,37.38
2019-02-06T18:23:57.421Z,35.83
2019-02-06T18:26:31.322Z,37.00
2019-02-06T18:29:05.562Z,35.55
2019-02-06T18:31:38.983Z,35.80
2019-02-06T18:34:12.643Z,38.58
2019-02-06T18:36:45.962Z,34.88
2019-02-06T18:39:19.567Z,36.55
2019-02-06T18:41:51.983Z,35.80
2019-02-06T18:44:25.206Z,36.93
2019-02-06T18:46:58.462Z,34.65
2019-02-06T18:49:30.343Z,35.38
2019-02-06T18:52:02.761Z,35.45
2019-02-06T18:54:35.823Z,36.50
2019-02-06T18:57:07.926Z,32.60
2019-02-06T18:59:40.948Z,35.30
2019-02-06T19:02:14.281Z,34.92
2019-02-06T19:04:47.110Z,36.70
2019-02-06T19:07:19.637Z,36.60
2019-02-06T19:09:52.542Z,37.93
2019-02-06T19:12:25.602Z,37.90
2019-02-06T19:14:59.421Z,38.78
2019-02-06T19:17:31.504Z,38.30
2019-02-06T19:20:04.742Z,36.25
2019-02-06T19:22:37.923Z,36.00
2019-02-06T19:25:11.723Z,36.88
2019-02-06T19:27:44.944Z,37.98
2019-02-06T19:30:30.963Z,39.65
2019-02-06T19:33:03.662Z,39.65
2019-02-06T19:35:36.924Z,36.75
2019-02-06T19:38:10.863Z,34.80
2019-02-06T19:40:44.201Z,37.67
2019-02-06T19:43:17.521Z,38.83
2019-02-06T19:45:49.949Z,37.58
2019-02-06T19:48:22.762Z,46.98
2019-02-06T19:50:55.281Z,37.08
2019-02-06T19:53:27.941Z,37.10
2019-02-06T19:56:00.482Z,35.52
2019-02-06T19:58:33.682Z,37.10
2019-02-06T20:01:06.366Z,35.15
2019-02-06T20:03:38.862Z,36.88
2019-02-06T20:06:29.662Z,37.10
2019-02-06T20:09:06.042Z,35.38
2019-02-06T20:11:38.862Z,36.10
2019-02-06T20:14:11.862Z,37.13
2019-02-06T20:16:45.103Z,37.03
2019-02-06T20:19:20.473Z,38.83
2019-02-06T20:21:51.521Z,37.67
2019-02-06T20:24:24.023Z,40.03
2019-02-06T20:26:57.023Z,36.85
2019-02-06T20:29:29.806Z,39.08
2019-02-06T20:32:03.402Z,36.98
2019-02-06T20:34:35.942Z,39.13
2019-02-06T20:37:07.241Z,36.35
2019-02-06T20:39:40.203Z,35.75
2019-02-06T20:42:12.646Z,36.35
2019-02-06T20:44:46.083Z,35.33
2019-02-06T20:47:19.402Z,34.45
2019-02-06T20:49:51.941Z,33.55
2019-02-06T20:52:24.343Z,31.80
2019-02-06T20:54:57.742Z,33.75
2019-02-06T20:57:30.982Z,33.02
2019-02-06T21:00:03.782Z,33.00
2019-02-06T21:02:36.303Z,31.82
2019-02-06T21:05:09.762Z,31.93
2019-02-06T21:07:42.643Z,29.45
2019-02-06T21:10:20.922Z,31.95
2019-02-06T21:12:53.603Z,31.93
2019-02-06T21:15:25.962Z,40.98
2019-02-06T21:17:58.042Z,32.75
2019-02-06T21:20:30.544Z,31.48
2019-02-06T21:23:04.081Z,37.15
2019-02-06T21:25:36.165Z,33.60
2019-02-06T21:28:09.401Z,32.50
2019-02-06T21:30:42.823Z,32.30
2019-02-06T21:33:16.282Z,31.70
2019-02-06T21:35:49.884Z,32.10
2019-02-06T21:38:23.022Z,31.80
2019-02-06T21:40:55.321Z,31.10
2019-02-06T21:43:27.705Z,32.10
2019-02-06T21:46:00.683Z,31.87
2019-02-06T21:48:34.362Z,32.20
2019-02-06T21:51:07.361Z,32.33
2019-02-06T21:53:39.762Z,33.53
2019-02-06T21:56:12.623Z,35.90
2019-02-06T21:58:45.423Z,34.48
2019-02-06T22:01:19.203Z,33.13
2019-02-06T22:03:50.883Z,33.23
2019-02-06T22:06:23.984Z,34.03
2019-02-06T22:08:57.023Z,32.95
2019-02-06T22:11:30.304Z,33.63
2019-02-06T22:14:04.363Z,32.23
2019-02-06T22:16:37.063Z,33.05
2019-02-06T22:19:09.829Z,35.08
2019-02-06T22:21:43.862Z,33.30
2019-02-06T22:24:16.743Z,33.73
2019-02-06T22:26:49.063Z,31.65
2019-02-06T22:29:22.402Z,33.15
2019-02-06T22:31:54.866Z,32.33
2019-02-06T22:34:27.863Z,31.65
2019-02-06T22:37:01.704Z,33.92
2019-02-06T22:39:34.803Z,30.97
2019-02-06T22:42:07.126Z,32.38
2019-02-06T22:44:40.002Z,33.65
2019-02-06T22:47:13.144Z,31.65
2019-02-06T22:49:46.142Z,30.92
2019-02-06T22:52:19.203Z,30.80
2019-02-06T22:54:51.522Z,30.55
2019-02-06T22:57:24.402Z,31.60
2019-02-06T22:59:57.422Z,31.20
2019-02-06T23:02:30.282Z,32.75
2019-02-06T23:05:02.684Z,28.25
2019-02-06T23:07:36.023Z,30.72
2019-02-06T23:10:09.702Z,29.90
2019-02-06T23:12:42.644Z,30.32
2019-02-06T23:15:16.063Z,31.12
2019-02-06T23:17:49.245Z,32.42
2019-02-06T23:20:22.164Z,30.37
2019-02-06T23:22:54.263Z,32.35
2019-02-06T23:25:27.003Z,32.95
2019-02-06T23:27:59.884Z,31.62
2019-02-06T23:30:33.764Z,31.90
2019-02-06T23:33:07.104Z,30.82
2019-02-06T23:35:40.446Z,33.78
2019-02-06T23:38:13.304Z,32.65
2019-02-06T23:40:46.066Z,31.77
2019-02-06T23:43:18.562Z,36.08
2019-02-06T23:45:51.763Z,35.05
2019-02-06T23:48:23.868Z,36.35
2019-02-06T23:50:56.903Z,31.82
2019-02-06T23:53:30.102Z,31.05
2019-02-06T23:56:02.601Z,30.92
2019-02-06T23:58:34.589Z,30.48
